New Harbour, Canada
Current Conditions -  °F | °C
As of 9:00 PM on Sunday 23 Nov 2014 (Local Time) from CYYT Reporting Station
Few Clouds Few Clouds  
Wind Chill: 21°   Ceiling: Unl
Heat Index: 34°   Visibility: 15mi
Dew Point: 28°   Wind: 24mph
Humidity: 81%   Direction: 280°W
Pressure: 29.87"   Gusts: 31mph
Location:  47.58°N, 53.55°W
Report Text: CYYT 240000Z 28021G27KT 15SM FEW220 01/M02 A2987 RMK CI1 PRESRR SLP121
Loading
Personal Weather Stations






























Interactive Weather Map New forecast layout! Learn more

10-Day Weather Forecast

Advertisements
Track Severe Weather on mobile